Flight Track Log - Related Links

Times and Time Zones

All times are in EDT time to prevent confusion due to time zone crossing. See the WEW1540 flight status page for this flight to view local times or setup timezone preferences in your user account.


Time Position Orientation Groundspeed Altitude Reporting Facility
EDT Latitude Longitude Course Direction KTS MPH feet Rate Location/Type
Wed 07:57:37 PM 50.2500 -107.4833 85° East 160 184 8,900  Level Winnipeg Center
Wed 07:58:36 PM 50.2667 -107.4167 69° East 170 196 9,000 50 Climbing Winnipeg Center
Wed 07:59:36 PM 50.3000 -107.3333 58° Northeast 200 230 9,000  Level Winnipeg Center
Wed 08:00:36 PM 50.3333 -107.2667 52° Northeast 200 230 9,000  Level Winnipeg Center
Wed 08:01:36 PM 50.3667 -107.1833 58° Northeast 200 230 9,000  Level Winnipeg Center
Wed 08:02:00 PM 50.3309 -107.0004 85° East  Level Estimated
Wed 08:02:37 PM 50.3833 -107.1167 69° East 200 230 9,000  Level Winnipeg Center
Wed 08:03:00 PM 50.3349 -106.9236 85° East  Level Estimated
Wed 08:03:36 PM 50.4000 -107.0500 69° East 200 230 9,000  Level Winnipeg Center
Wed 08:04:36 PM 50.4167 -106.9667 73° East 200 230 9,000  Level Winnipeg Center
Wed 08:05:36 PM 50.4167 -106.8667 90° East 200 230 9,000  Level Winnipeg Center
Wed 08:06:36 PM 50.4167 -106.7833 90° East 200 230 9,000  Level Winnipeg Center
Wed 08:07:37 PM 50.4000 -106.7000 107° East 210 242 9,000  Level Winnipeg Center
Wed 08:08:36 PM 50.4167 -106.6000 75° East 210 242 9,000  Level Winnipeg Center
Wed 08:09:36 PM 50.4000 -106.5167 107° East 210 242 9,000  Level Winnipeg Center
Wed 08:10:36 PM 50.4167 -106.4167 75° East 210 242 9,000  Level Winnipeg Center
Wed 08:11:36 PM 50.4333 -106.3333 73° East 200 230 9,000  Level Winnipeg Center
Wed 08:12:37 PM 50.4500 -106.2667 69° East 200 230 9,000  Level Winnipeg Center
Wed 08:13:36 PM 50.4833 -106.1833 58° Northeast 200 230 9,000 50 Level Winnipeg Center
Wed 08:14:36 PM 50.5000 -106.1167 69° East 200 230 9,100 50 Climbing Winnipeg Center
Wed 08:15:36 PM 50.5167 -106.0000 77° East 200 230 9,100  Level Winnipeg Center
Wed 08:16:36 PM 50.5167 -105.9333 90° East 210 242 9,100  Level Winnipeg Center
Wed 08:17:36 PM 50.5333 -105.8167 77° East 200 230 9,100  Level Winnipeg Center
Wed 08:18:36 PM 50.5333 -105.7500 74° East 210 242 9,100  Level Winnipeg Center
Wed 08:19:00 PM 50.5524 -105.7093 74° East  Level FlightAware Approximate
Wed 08:19:36 PM 50.5500 -105.6667 72° East 210 242 9,100  Level Winnipeg Center
Wed 08:20:36 PM 50.5667 -105.5667 75° East 200 230 9,100  Level Winnipeg Center
Wed 08:21:36 PM 50.5667 -105.4833 90° East 200 230 9,100  Level Winnipeg Center
Wed 08:22:36 PM 50.5667 -105.4167 90° East 200 230 9,100 -333 Level Winnipeg Center
Wed 08:24:00 PM 50.6035 -105.3098 73° East  Level FlightAware Approximate
Wed 08:24:36 PM 50.5167 -105.2333 73° East 220 253 8,100  Level Winnipeg Center
Wed 08:25:36 PM 50.5000 -105.1500 107° East 220 253 7,500 -550 Descending Winnipeg Center
Wed 08:26:36 PM 50.4667 -105.0500 118° Southeast 210 242 7,000 -700 Descending Winnipeg Center
Wed 08:27:36 PM 50.4333 -104.9667 122° Southeast 210 242 6,100 -1,000 Descending Winnipeg Center
Wed 08:28:36 PM 50.4333 -104.8833 90° East 210 242 5,000 -1,200 Descending Winnipeg Center
Wed 08:29:36 PM 50.4167 -104.8000 107° East 200 230 3,700 -1,000 Descending Winnipeg Center
Wed 08:30:36 PM 50.4000 -104.7167 107° East 160 184 3,000 -850 Descending Winnipeg Center
Wed 08:31:36 PM 50.4000 -104.7000 90° East 100 115 2,000 -500 Descending Winnipeg Center
Wed 08:32:36 PM 50.4000 -104.6667 90° East 60 69 2,000  Level Winnipeg Center

Login

Don't have an account? Register now (free) for customized features, flight alerts, and more!